sensor_id;sensor_type;location;lat;lon;timestamp;pressure;altitude;pressure_sealevel;temperature;humidity
62708;BME280;48769;51.624;5.886;2023-03-21T00:01:53;101525.34;;;10.31;100.00
62708;BME280;48769;51.624;5.886;2023-03-21T00:04:20;101528.59;;;10.37;100.00
62708;BME280;48769;51.624;5.886;2023-03-21T00:06:49;101529.50;;;10.36;100.00
62708;BME280;48769;51.624;5.886;2023-03-21T00:09:15;101526.13;;;10.33;100.00
62708;BME280;48769;51.624;5.886;2023-03-21T00:11:40;101521.97;;;10.27;100.00
62708;BME280;48769;51.624;5.886;2023-03-21T00:14:06;101511.72;;;10.18;100.00
62708;BME280;48769;51.624;5.886;2023-03-21T00:16:33;101508.59;;;10.08;100.00
62708;BME280;48769;51.624;5.886;2023-03-21T00:19:00;101509.44;;;10.09;100.00
62708;BME280;48769;51.624;5.886;2023-03-21T00:21:28;101509.56;;;10.05;100.00
62708;BME280;48769;51.624;5.886;2023-03-21T00:23:57;101510.66;;;10.00;100.00
62708;BME280;48769;51.624;5.886;2023-03-21T00:26:23;101509.69;;;10.02;100.00
62708;BME280;48769;51.624;5.886;2023-03-21T00:28:49;101505.13;;;10.06;100.00
62708;BME280;48769;51.624;5.886;2023-03-21T00:31:15;101501.75;;;10.02;100.00
62708;BME280;48769;51.624;5.886;2023-03-21T00:33:40;101500.03;;;10.01;100.00
62708;BME280;48769;51.624;5.886;2023-03-21T00:36:07;101492.13;;;10.01;100.00
62708;BME280;48769;51.624;5.886;2023-03-21T00:38:34;101495.75;;;9.99;100.00
62708;BME280;48769;51.624;5.886;2023-03-21T00:41:02;101487.84;;;9.97;100.00
62708;BME280;48769;51.624;5.886;2023-03-21T00:43:27;101493.94;;;9.99;100.00
62708;BME280;48769;51.624;5.886;2023-03-21T00:45:55;101482.78;;;9.93;100.00
62708;BME280;48769;51.624;5.886;2023-03-21T00:48:20;101481.81;;;9.95;100.00
62708;BME280;48769;51.624;5.886;2023-03-21T00:50:46;101488.78;;;9.96;100.00
62708;BME280;48769;51.624;5.886;2023-03-21T00:53:13;101483.59;;;9.95;100.00
62708;BME280;48769;51.624;5.886;2023-03-21T00:55:39;101481.00;;;9.93;100.00
62708;BME280;48769;51.624;5.886;2023-03-21T00:58:05;101473.19;;;9.90;100.00
62708;BME280;48769;51.624;5.886;2023-03-21T01:00:31;101478.59;;;9.87;100.00
62708;BME280;48769;51.624;5.886;2023-03-21T01:03:02;101479.56;;;9.84;100.00
62708;BME280;48769;51.624;5.886;2023-03-21T01:05:32;101468.13;;;9.84;100.00
62708;BME280;48769;51.624;5.886;2023-03-21T01:08:17;101471.59;;;9.86;100.00
62708;BME280;48769;51.624;5.886;2023-03-21T01:10:45;101466.25;;;9.88;100.00
62708;BME280;48769;51.624;5.886;2023-03-21T01:13:12;101463.59;;;9.88;100.00
62708;BME280;48769;51.624;5.886;2023-03-21T01:15:47;101456.63;;;9.87;100.00
62708;BME280;48769;51.624;5.886;2023-03-21T01:18:15;101459.22;;;9.88;100.00
62708;BME280;48769;51.624;5.886;2023-03-21T01:20:42;101455.75;;;9.86;100.00
62708;BME280;48769;51.624;5.886;2023-03-21T01:23:08;101459.09;;;9.91;100.00
62708;BME280;48769;51.624;5.886;2023-03-21T01:25:34;101454.78;;;9.89;100.00
62708;BME280;48769;51.624;5.886;2023-03-21T01:27:59;101450.16;;;9.94;100.00
62708;BME280;48769;51.624;5.886;2023-03-21T01:30:25;101444.97;;;9.92;100.00
62708;BME280;48769;51.624;5.886;2023-03-21T01:32:51;101445.72;;;9.96;100.00
62708;BME280;48769;51.624;5.886;2023-03-21T01:35:16;101448.28;;;9.97;100.00
62708;BME280;48769;51.624;5.886;2023-03-21T01:37:41;101439.34;;;10.01;100.00
62708;BME280;48769;51.624;5.886;2023-03-21T01:40:10;101439.56;;;9.95;100.00
62708;BME280;48769;51.624;5.886;2023-03-21T01:42:38;101433.31;;;9.98;100.00
62708;BME280;48769;51.624;5.886;2023-03-21T01:45:06;101426.38;;;9.95;100.00
62708;BME280;48769;51.624;5.886;2023-03-21T01:47:50;101425.31;;;9.99;100.00
62708;BME280;48769;51.624;5.886;2023-03-21T01:50:16;101423.63;;;9.98;100.00
62708;BME280;48769;51.624;5.886;2023-03-21T01:52:42;101423.75;;;9.95;100.00
62708;BME280;48769;51.624;5.886;2023-03-21T01:55:11;101424.59;;;9.96;100.00
62708;BME280;48769;51.624;5.886;2023-03-21T01:57:50;101421.84;;;9.99;100.00
62708;BME280;48769;51.624;5.886;2023-03-21T02:00:19;101412.81;;;10.04;100.00
62708;BME280;48769;51.624;5.886;2023-03-21T02:02:49;101409.97;;;10.09;100.00
62708;BME280;48769;51.624;5.886;2023-03-21T02:08:12;101403.75;;;10.10;100.00
62708;BME280;48769;51.624;5.886;2023-03-21T02:10:39;101399.41;;;10.09;100.00
62708;BME280;48769;51.624;5.886;2023-03-21T02:13:07;101400.41;;;10.06;100.00
62708;BME280;48769;51.624;5.886;2023-03-21T02:15:39;101395.94;;;10.09;100.00
62708;BME280;48769;51.624;5.886;2023-03-21T02:21:18;101389.72;;;10.10;100.00
62708;BME280;48769;51.624;5.886;2023-03-21T02:26:37;101389.97;;;10.03;100.00
62708;BME280;48769;51.624;5.886;2023-03-21T02:29:22;101386.66;;;9.98;100.00
62708;BME280;48769;51.624;5.886;2023-03-21T02:31:59;101381.63;;;9.92;100.00
62708;BME280;48769;51.624;5.886;2023-03-21T02:37:40;101376.84;;;10.02;100.00
62708;BME280;48769;51.624;5.886;2023-03-21T02:42:48;101375.97;;;10.01;100.00
62708;BME280;48769;51.624;5.886;2023-03-21T02:45:22;101366.28;;;10.02;100.00
62708;BME280;48769;51.624;5.886;2023-03-21T02:47:58;101361.84;;;10.02;100.00
62708;BME280;48769;51.624;5.886;2023-03-21T02:50:31;101355.84;;;9.99;100.00
62708;BME280;48769;51.624;5.886;2023-03-21T02:52:59;101354.88;;;10.01;100.00
62708;BME280;48769;51.624;5.886;2023-03-21T02:55:30;101356.56;;;10.02;100.00
62708;BME280;48769;51.624;5.886;2023-03-21T02:57:56;101356.69;;;9.99;100.00
62708;BME280;48769;51.624;5.886;2023-03-21T03:00:26;101350.72;;;9.94;100.00
62708;BME280;48769;51.624;5.886;2023-03-21T03:02:53;101354.19;;;9.96;100.00
62708;BME280;48769;51.624;5.886;2023-03-21T03:05:27;101361.28;;;9.94;100.00
62708;BME280;48769;51.624;5.886;2023-03-21T03:08:09;101364.09;;;9.91;100.00
62708;BME280;48769;51.624;5.886;2023-03-21T03:11:08;101346.50;;;9.90;100.00
62708;BME280;48769;51.624;5.886;2023-03-21T03:13:49;101355.47;;;9.86;100.00
62708;BME280;48769;51.624;5.886;2023-03-21T03:19:30;101351.91;;;9.87;100.00
62708;BME280;48769;51.624;5.886;2023-03-21T03:22:08;101355.34;;;9.89;100.00
62708;BME280;48769;51.624;5.886;2023-03-21T03:27:23;101342.09;;;9.91;100.00
62708;BME280;48769;51.624;5.886;2023-03-21T03:29:52;101340.25;;;9.93;100.00
62708;BME280;48769;51.624;5.886;2023-03-21T03:32:24;101335.84;;;9.93;100.00
62708;BME280;48769;51.624;5.886;2023-03-21T03:34:52;101336.81;;;9.91;100.00
62708;BME280;48769;51.624;5.886;2023-03-21T03:37:23;101336.94;;;9.88;100.00
62708;BME280;48769;51.624;5.886;2023-03-21T03:40:06;101332.41;;;9.91;100.00
62708;BME280;48769;51.624;5.886;2023-03-21T03:42:46;101331.66;;;9.88;100.00
62708;BME280;48769;51.624;5.886;2023-03-21T03:45:13;101333.31;;;9.90;100.00
62708;BME280;48769;51.624;5.886;2023-03-21T03:47:46;101328.97;;;9.89;100.00
62708;BME280;48769;51.624;5.886;2023-03-21T03:50:31;101324.63;;;9.88;100.00
62708;BME280;48769;51.624;5.886;2023-03-21T03:53:05;101315.09;;;9.84;100.00
62708;BME280;48769;51.624;5.886;2023-03-21T03:55:32;101328.38;;;9.82;100.00
62708;BME280;48769;51.624;5.886;2023-03-21T03:57:59;101330.06;;;9.83;100.00
62708;BME280;48769;51.624;5.886;2023-03-21T04:00:26;101329.22;;;9.83;100.00
62708;BME280;48769;51.624;5.886;2023-03-21T04:02:52;101320.38;;;9.84;100.00
62708;BME280;48769;51.624;5.886;2023-03-21T04:05:18;101334.28;;;9.88;100.00
62708;BME280;48769;51.624;5.886;2023-03-21T04:07:46;101329.09;;;9.86;100.00
62708;BME280;48769;51.624;5.886;2023-03-21T04:10:15;101327.56;;;9.80;100.00
62708;BME280;48769;51.624;5.886;2023-03-21T04:12:40;101324.78;;;9.83;100.00
62708;BME280;48769;51.624;5.886;2023-03-21T04:15:06;101329.59;;;9.74;100.00
62708;BME280;48769;51.624;5.886;2023-03-21T04:17:32;101325.41;;;9.68;100.00
62708;BME280;48769;51.624;5.886;2023-03-21T04:19:58;101319.41;;;9.65;100.00
62708;BME280;48769;51.624;5.886;2023-03-21T04:22:23;101317.81;;;9.60;100.00
62708;BME280;48769;51.624;5.886;2023-03-21T04:24:49;101315.06;;;9.64;100.00
62708;BME280;48769;51.624;5.886;2023-03-21T04:27:15;101312.41;;;9.64;100.00
62708;BME280;48769;51.624;5.886;2023-03-21T04:29:40;101307.13;;;9.64;100.00
62708;BME280;48769;51.624;5.886;2023-03-21T04:32:06;101315.00;;;9.65;100.00
62708;BME280;48769;51.624;5.886;2023-03-21T04:34:41;101308.84;;;9.65;100.00
62708;BME280;48769;51.624;5.886;2023-03-21T04:37:08;101312.41;;;9.64;100.00
62708;BME280;48769;51.624;5.886;2023-03-21T04:39:36;101312.53;;;9.60;100.00
62708;BME280;48769;51.624;5.886;2023-03-21T04:42:02;101301.25;;;9.57;100.00
62708;BME280;48769;51.624;5.886;2023-03-21T04:44:28;101295.00;;;9.59;100.00
62708;BME280;48769;51.624;5.886;2023-03-21T04:46:53;101300.16;;;9.63;100.00
62708;BME280;48769;51.624;5.886;2023-03-21T04:49:19;101298.41;;;9.62;100.00
62708;BME280;48769;51.624;5.886;2023-03-21T04:51:45;101305.31;;;9.66;100.00
62708;BME280;48769;51.624;5.886;2023-03-21T04:54:11;101291.31;;;9.64;100.00
62708;BME280;48769;51.624;5.886;2023-03-21T04:56:37;101281.81;;;9.59;100.00
62708;BME280;48769;51.624;5.886;2023-03-21T04:59:12;101282.47;;;9.65;100.00
62708;BME280;48769;51.624;5.886;2023-03-21T05:01:41;101285.91;;;9.67;100.00
62708;BME280;48769;51.624;5.886;2023-03-21T05:04:08;101279.81;;;9.65;100.00
62708;BME280;48769;51.624;5.886;2023-03-21T05:06:35;101287.69;;;9.66;100.00
62708;BME280;48769;51.624;5.886;2023-03-21T05:09:02;101284.25;;;9.64;100.00
62708;BME280;48769;51.624;5.886;2023-03-21T05:11:30;101286.16;;;9.60;100.00
62708;BME280;48769;51.624;5.886;2023-03-21T05:13:56;101286.28;;;9.57;100.00
62708;BME280;48769;51.624;5.886;2023-03-21T05:16:22;101285.31;;;9.60;100.00
62708;BME280;48769;51.624;5.886;2023-03-21T05:18:51;101287.81;;;9.63;100.00
62708;BME280;48769;51.624;5.886;2023-03-21T05:21:19;101290.44;;;9.63;100.00
62708;BME280;48769;51.624;5.886;2023-03-21T05:23:45;101282.47;;;9.65;100.00
62708;BME280;48769;51.624;5.886;2023-03-21T05:26:18;101284.50;;;9.58;100.00
62708;BME280;48769;51.624;5.886;2023-03-21T05:28:43;101281.94;;;9.56;100.00
62708;BME280;48769;51.624;5.886;2023-03-21T05:31:08;101287.97;;;9.58;100.00
62708;BME280;48769;51.624;5.886;2023-03-21T05:33:34;101285.09;;;9.65;100.00
62708;BME280;48769;51.624;5.886;2023-03-21T05:35:59;101281.56;;;9.66;100.00
62708;BME280;48769;51.624;5.886;2023-03-21T05:38:25;101280.75;;;9.64;100.00
62708;BME280;48769;51.624;5.886;2023-03-21T05:40:52;101281.56;;;9.66;100.00
62708;BME280;48769;51.624;5.886;2023-03-21T05:43:18;101278.06;;;9.65;100.00
62708;BME280;48769;51.624;5.886;2023-03-21T05:45:43;101272.50;;;9.71;100.00
62708;BME280;48769;51.624;5.886;2023-03-21T05:48:09;101268.13;;;9.72;100.00
62708;BME280;48769;51.624;5.886;2023-03-21T05:50:34;101262.84;;;9.72;100.00
62708;BME280;48769;51.624;5.886;2023-03-21T05:53:00;101268.78;;;9.77;100.00
62708;BME280;48769;51.624;5.886;2023-03-21T05:55:25;101266.22;;;9.75;100.00
62708;BME280;48769;51.624;5.886;2023-03-21T05:57:50;101264.44;;;9.76;100.00
62708;BME280;48769;51.624;5.886;2023-03-21T06:00:16;101267.84;;;9.78;100.00
62708;BME280;48769;51.624;5.886;2023-03-21T06:02:43;101265.97;;;9.81;100.00
62708;BME280;48769;51.624;5.886;2023-03-21T06:05:08;101262.31;;;9.84;100.00
62708;BME280;48769;51.624;5.886;2023-03-21T06:07:35;101269.72;;;9.76;100.00
62708;BME280;48769;51.624;5.886;2023-03-21T06:10:02;101270.59;;;9.75;100.00
62708;BME280;48769;51.624;5.886;2023-03-21T06:12:28;101266.94;;;9.79;100.00
62708;BME280;48769;51.624;5.886;2023-03-21T06:14:53;101264.97;;;9.84;100.00
62708;BME280;48769;51.624;5.886;2023-03-21T06:17:18;101265.81;;;9.84;100.00
62708;BME280;48769;51.624;5.886;2023-03-21T06:19:44;101270.97;;;9.88;100.00
62708;BME280;48769;51.624;5.886;2023-03-21T06:22:09;101266.44;;;9.91;100.00
62708;BME280;48769;51.624;5.886;2023-03-21T06:24:35;101269.94;;;9.92;100.00
62708;BME280;48769;51.624;5.886;2023-03-21T06:27:00;101267.22;;;9.93;100.00
62708;BME280;48769;51.624;5.886;2023-03-21T06:29:26;101264.69;;;9.90;100.00
62708;BME280;48769;51.624;5.886;2023-03-21T06:31:51;101263.81;;;9.91;100.00
62708;BME280;48769;51.624;5.886;2023-03-21T06:34:16;101266.69;;;9.85;100.00
62708;BME280;48769;51.624;5.886;2023-03-21T06:36:42;101271.03;;;9.86;100.00
62708;BME280;48769;51.624;5.886;2023-03-21T06:39:09;101268.06;;;9.94;100.00
62708;BME280;48769;51.624;5.886;2023-03-21T06:41:34;101268.78;;;9.97;100.00
62708;BME280;48769;51.624;5.886;2023-03-21T06:44:00;101263.47;;;9.99;100.00
62708;BME280;48769;51.624;5.886;2023-03-21T06:46:25;101276.72;;;9.97;100.00
62708;BME280;48769;51.624;5.886;2023-03-21T06:48:51;101271.31;;;10.00;100.00
62708;BME280;48769;51.624;5.886;2023-03-21T06:51:16;101266.84;;;10.02;100.00
62708;BME280;48769;51.624;5.886;2023-03-21T06:53:42;101270.00;;;10.11;100.00
62708;BME280;48769;51.624;5.886;2023-03-21T06:56:09;101266.44;;;10.12;100.00
62708;BME280;48769;51.624;5.886;2023-03-21T06:58:35;101272.56;;;10.12;100.00
62708;BME280;48769;51.624;5.886;2023-03-21T07:01:02;101268.16;;;10.13;100.00
62708;BME280;48769;51.624;5.886;2023-03-21T07:03:28;101261.16;;;10.12;100.00
62708;BME280;48769;51.624;5.886;2023-03-21T07:05:53;101269.72;;;10.17;100.00
62708;BME280;48769;51.624;5.886;2023-03-21T07:08:19;101264.31;;;10.20;100.00
62708;BME280;48769;51.624;5.886;2023-03-21T07:10:44;101263.28;;;10.24;100.00
62708;BME280;48769;51.624;5.886;2023-03-21T07:13:11;101262.25;;;10.28;100.00
62708;BME280;48769;51.624;5.886;2023-03-21T07:15:37;101270.69;;;10.36;100.00
62708;BME280;48769;51.624;5.886;2023-03-21T07:18:03;101280.47;;;10.34;100.00
62708;BME280;48769;51.624;5.886;2023-03-21T07:20:29;101270.19;;;10.28;100.00
62708;BME280;48769;51.624;5.886;2023-03-21T07:22:56;101273.31;;;10.36;100.00
62708;BME280;48769;51.624;5.886;2023-03-21T07:25:21;101275.84;;;10.39;100.00
62708;BME280;48769;51.624;5.886;2023-03-21T07:27:46;101282.59;;;10.46;100.00
62708;BME280;48769;51.624;5.886;2023-03-21T07:30:12;101281.84;;;10.43;100.00
62708;BME280;48769;51.624;5.886;2023-03-21T07:32:38;101283.47;;;10.45;100.00
62708;BME280;48769;51.624;5.886;2023-03-21T07:35:05;101274.00;;;10.41;100.00
62708;BME280;48769;51.624;5.886;2023-03-21T07:37:31;101286.41;;;10.39;100.00
62708;BME280;48769;51.624;5.886;2023-03-21T07:39:56;101292.69;;;10.37;100.00
62708;BME280;48769;51.624;5.886;2023-03-21T07:42:21;101288.41;;;10.34;100.00
62708;BME280;48769;51.624;5.886;2023-03-21T07:44:47;101291.81;;;10.36;100.00
62708;BME280;48769;51.624;5.886;2023-03-21T07:47:12;101293.72;;;10.33;100.00
62708;BME280;48769;51.624;5.886;2023-03-21T07:49:37;101307.38;;;10.42;100.00
62708;BME280;48769;51.624;5.886;2023-03-21T07:52:04;101301.13;;;10.45;100.00
62708;BME280;48769;51.624;5.886;2023-03-21T07:54:29;101290.56;;;10.45;100.00
62708;BME280;48769;51.624;5.886;2023-03-21T07:56:55;101302.09;;;10.42;100.00
62708;BME280;48769;51.624;5.886;2023-03-21T07:59:21;101298.69;;;10.40;100.00
62708;BME280;48769;51.624;5.886;2023-03-21T08:01:47;101300.44;;;10.40;100.00
62708;BME280;48769;51.624;5.886;2023-03-21T08:04:12;101307.53;;;10.39;100.00
62708;BME280;48769;51.624;5.886;2023-03-21T08:06:38;101301.25;;;10.42;100.00
62708;BME280;48769;51.624;5.886;2023-03-21T08:09:03;101299.56;;;10.41;100.00
62708;BME280;48769;51.624;5.886;2023-03-21T08:11:29;101299.56;;;10.41;100.00
62708;BME280;48769;51.624;5.886;2023-03-21T08:13:58;101301.25;;;10.42;100.00
62708;BME280;48769;51.624;5.886;2023-03-21T08:16:24;101293.28;;;10.43;100.00
62708;BME280;48769;51.624;5.886;2023-03-21T08:18:50;101302.25;;;10.39;100.00
62708;BME280;48769;51.624;5.886;2023-03-21T08:21:15;101296.81;;;10.42;100.00
62708;BME280;48769;51.624;5.886;2023-03-21T08:23:41;101284.41;;;10.44;100.00
62708;BME280;48769;51.624;5.886;2023-03-21T08:26:06;101292.13;;;10.49;100.00
62708;BME280;48769;51.624;5.886;2023-03-21T08:28:32;101289.19;;;10.57;100.00
62708;BME280;48769;51.624;5.886;2023-03-21T08:30:57;101286.44;;;10.58;100.00
62708;BME280;48769;51.624;5.886;2023-03-21T08:33:23;101271.44;;;10.59;100.00
62708;BME280;48769;51.624;5.886;2023-03-21T08:35:48;101278.47;;;10.60;100.00
62708;BME280;48769;51.624;5.886;2023-03-21T08:38:13;101264.19;;;10.64;100.00
62708;BME280;48769;51.624;5.886;2023-03-21T08:40:39;101258.91;;;10.64;100.00
62708;BME280;48769;51.624;5.886;2023-03-21T08:43:05;101264.09;;;10.65;100.00
62708;BME280;48769;51.624;5.886;2023-03-21T08:45:31;101256.03;;;10.68;100.00
62708;BME280;48769;51.624;5.886;2023-03-21T08:47:56;101255.84;;;10.73;100.00
62708;BME280;48769;51.624;5.886;2023-03-21T08:50:23;101253.91;;;10.76;100.00
62708;BME280;48769;51.624;5.886;2023-03-21T08:52:50;101254.13;;;10.72;100.00
62708;BME280;48769;51.624;5.886;2023-03-21T08:55:17;101248.69;;;10.75;100.00
62708;BME280;48769;51.624;5.886;2023-03-21T08:57:43;101250.16;;;10.82;100.00
62708;BME280;48769;51.624;5.886;2023-03-21T09:00:11;101249.22;;;10.83;100.00
62708;BME280;48769;51.624;5.886;2023-03-21T09:02:41;101248.97;;;10.88;100.00
62708;BME280;48769;51.624;5.886;2023-03-21T09:05:08;101243.94;;;10.83;100.00
62708;BME280;48769;51.624;5.886;2023-03-21T09:07:36;101248.56;;;10.78;100.00
62708;BME280;48769;51.624;5.886;2023-03-21T09:10:04;101248.56;;;10.78;100.00
62708;BME280;48769;51.624;5.886;2023-03-21T09:12:31;101254.78;;;10.77;100.00
62708;BME280;48769;51.624;5.886;2023-03-21T09:14:57;101250.47;;;10.74;100.00
62708;BME280;48769;51.624;5.886;2023-03-21T09:17:22;101248.50;;;10.80;100.00
62708;BME280;48769;51.624;5.886;2023-03-21T09:19:50;101251.06;;;10.81;100.00
62708;BME280;48769;51.624;5.886;2023-03-21T09:22:17;101244.69;;;10.85;100.00
62708;BME280;48769;51.624;5.886;2023-03-21T09:24:43;101245.13;;;10.95;100.00
62708;BME280;48769;51.624;5.886;2023-03-21T09:27:12;101245.22;;;10.93;100.00
62708;BME280;48769;51.624;5.886;2023-03-21T09:29:38;101239.91;;;10.93;100.00
62708;BME280;48769;51.624;5.886;2023-03-21T09:32:04;101221.66;;;10.89;100.00
62708;BME280;48769;51.624;5.886;2023-03-21T09:34:31;101228.50;;;10.93;100.00
62708;BME280;48769;51.624;5.886;2023-03-21T09:36:56;101223.91;;;10.96;100.00
62708;BME280;48769;51.624;5.886;2023-03-21T09:39:22;101220.19;;;11.00;100.00
62708;BME280;48769;51.624;5.886;2023-03-21T09:45:09;101220.91;;;11.04;100.00
62708;BME280;48769;51.624;5.886;2023-03-21T09:47:42;101214.75;;;11.22;100.00
62708;BME280;48769;51.624;5.886;2023-03-21T09:50:33;101218.00;;;11.28;100.00
62708;BME280;48769;51.624;5.886;2023-03-21T09:53:03;101203.44;;;11.38;100.00
62708;BME280;48769;51.624;5.886;2023-03-21T09:55:34;101210.28;;;11.42;100.00
62708;BME280;48769;51.624;5.886;2023-03-21T10:00:36;101206.63;;;11.62;100.00
62708;BME280;48769;51.624;5.886;2023-03-21T10:03:18;101199.34;;;11.67;100.00
62708;BME280;48769;51.624;5.886;2023-03-21T10:05:49;101201.66;;;11.73;100.00
62708;BME280;48769;51.624;5.886;2023-03-21T10:08:22;101191.06;;;11.73;100.00
62708;BME280;48769;51.624;5.886;2023-03-21T10:10:54;101185.53;;;11.78;100.00
62708;BME280;48769;51.624;5.886;2023-03-21T10:13:32;101189.69;;;11.83;100.00
62708;BME280;48769;51.624;5.886;2023-03-21T10:16:00;101191.25;;;11.87;100.00
62708;BME280;48769;51.624;5.886;2023-03-21T10:18:31;101183.06;;;11.92;100.00
62708;BME280;48769;51.624;5.886;2023-03-21T10:20:57;101184.31;;;12.02;100.00
62708;BME280;48769;51.624;5.886;2023-03-21T10:23:27;101179.38;;;12.12;100.00
62708;BME280;48769;51.624;5.886;2023-03-21T10:25:55;101169.09;;;12.23;100.00
62708;BME280;48769;51.624;5.886;2023-03-21T10:28:29;101174.06;;;12.29;100.00
62708;BME280;48769;51.624;5.886;2023-03-21T10:31:00;101165.63;;;12.38;100.00
62708;BME280;48769;51.624;5.886;2023-03-21T10:33:32;101158.28;;;12.44;100.00
62708;BME280;48769;51.624;5.886;2023-03-21T10:36:00;101163.25;;;12.50;100.00
62708;BME280;48769;51.624;5.886;2023-03-21T10:38:26;101163.72;;;12.40;100.00
62708;BME280;48769;51.624;5.886;2023-03-21T10:40:53;101165.97;;;12.32;100.00
62708;BME280;48769;51.624;5.886;2023-03-21T10:45:45;101158.75;;;12.34;100.00
62708;BME280;48769;51.624;5.886;2023-03-21T10:48:11;101152.78;;;12.31;100.00
62708;BME280;48769;51.624;5.886;2023-03-21T10:50:37;101147.41;;;12.32;100.00
62708;BME280;48769;51.624;5.886;2023-03-21T10:53:02;101142.66;;;12.22;100.00
62708;BME280;48769;51.624;5.886;2023-03-21T10:55:33;101145.09;;;12.26;100.00
62708;BME280;48769;51.624;5.886;2023-03-21T10:58:09;101144.59;;;12.35;100.00
62708;BME280;48769;51.624;5.886;2023-03-21T11:00:43;101125.88;;;12.38;100.00
62708;BME280;48769;51.624;5.886;2023-03-21T11:03:43;101130.72;;;12.30;100.00
62708;BME280;48769;51.624;5.886;2023-03-21T11:06:26;101142.50;;;12.25;100.00
62708;BME280;48769;51.624;5.886;2023-03-21T11:09:00;101142.59;;;12.23;100.00
62708;BME280;48769;51.624;5.886;2023-03-21T11:11:32;101154.06;;;12.24;100.00
62708;BME280;48769;51.624;5.886;2023-03-21T11:14:00;101157.47;;;12.26;100.00
62708;BME280;48769;51.624;5.886;2023-03-21T11:16:41;101157.16;;;12.48;100.00
62708;BME280;48769;51.624;5.886;2023-03-21T11:19:19;101154.19;;;12.54;100.00
62708;BME280;48769;51.624;5.886;2023-03-21T11:21:52;101154.69;;;12.60;100.00
62708;BME280;48769;51.624;5.886;2023-03-21T11:24:18;101162.75;;;12.59;100.00
62708;BME280;48769;51.624;5.886;2023-03-21T11:26:47;101163.44;;;12.62;100.00
62708;BME280;48769;51.624;5.886;2023-03-21T11:32:00;101144.09;;;12.60;100.00
62708;BME280;48769;51.624;5.886;2023-03-21T11:37:43;101142.91;;;12.98;100.00
62708;BME280;48769;51.624;5.886;2023-03-21T11:40:31;101139.28;;;13.15;100.00
62708;BME280;48769;51.624;5.886;2023-03-21T11:45:26;101129.63;;;13.29;100.00
62708;BME280;48769;51.624;5.886;2023-03-21T11:47:54;101130.88;;;13.38;100.00
62708;BME280;48769;51.624;5.886;2023-03-21T11:56:03;101126.69;;;13.18;100.00
62708;BME280;48769;51.624;5.886;2023-03-21T12:03:51;101109.59;;;13.54;100.00
62708;BME280;48769;51.624;5.886;2023-03-21T12:07:14;101098.41;;;13.63;100.00
62708;BME280;48769;51.624;5.886;2023-03-21T12:09:40;101101.28;;;13.74;100.00
62708;BME280;48769;51.624;5.886;2023-03-21T12:15:00;101094.25;;;13.73;100.00
62708;BME280;48769;51.624;5.886;2023-03-21T12:23:26;101076.06;;;13.96;100.00
62708;BME280;48769;51.624;5.886;2023-03-21T12:37:10;101049.63;;;14.36;100.00
62708;BME280;48769;51.624;5.886;2023-03-21T12:39:42;101032.75;;;14.51;100.00
62708;BME280;48769;51.624;5.886;2023-03-21T12:42:22;101028.69;;;14.72;100.00
62708;BME280;48769;51.624;5.886;2023-03-21T12:45:14;101021.66;;;15.11;100.00
62708;BME280;48769;51.624;5.886;2023-03-21T12:47:46;101024.44;;;15.23;100.00
62708;BME280;48769;51.624;5.886;2023-03-21T12:50:33;101022.53;;;15.25;100.00
62708;BME280;48769;51.624;5.886;2023-03-21T12:53:17;101004.41;;;15.17;100.00
62708;BME280;48769;51.624;5.886;2023-03-21T12:55:48;101018.63;;;14.90;100.00
62708;BME280;48769;51.624;5.886;2023-03-21T12:58:21;101021.41;;;14.89;100.00
62708;BME280;48769;51.624;5.886;2023-03-21T13:00:53;101014.16;;;14.91;100.00
62708;BME280;48769;51.624;5.886;2023-03-21T13:03:23;101020.00;;;14.83;100.00
62708;BME280;48769;51.624;5.886;2023-03-21T13:05:55;101016.88;;;14.77;100.00
62708;BME280;48769;51.624;5.886;2023-03-21T13:10:50;101012.66;;;14.87;100.00
62708;BME280;48769;51.624;5.886;2023-03-21T13:13:37;101004.78;;;14.98;100.00
62708;BME280;48769;51.624;5.886;2023-03-21T13:27:34;100996.91;;;14.84;100.00
62708;BME280;48769;51.624;5.886;2023-03-21T13:30:03;100995.81;;;14.73;100.00
62708;BME280;48769;51.624;5.886;2023-03-21T13:32:43;100987.66;;;14.89;100.00
62708;BME280;48769;51.624;5.886;2023-03-21T13:37:58;100988.56;;;15.54;100.00
62708;BME280;48769;51.624;5.886;2023-03-21T13:40:44;100986.09;;;15.89;100.00
62708;BME280;48769;51.624;5.886;2023-03-21T13:43:33;100958.94;;;15.84;100.00
62708;BME280;48769;51.624;5.886;2023-03-21T13:46:13;100963.00;;;15.64;100.00
62708;BME280;48769;51.624;5.886;2023-03-21T13:48:53;100953.28;;;15.76;100.00
62708;BME280;48769;51.624;5.886;2023-03-21T13:56:27;100953.31;;;17.65;100.00
62708;BME280;48769;51.624;5.886;2023-03-21T13:59:00;100946.72;;;17.58;100.00
62708;BME280;48769;51.624;5.886;2023-03-21T14:04:29;100941.78;;;16.84;100.00
62708;BME280;48769;51.624;5.886;2023-03-21T14:06:58;100947.09;;;16.49;100.00
62708;BME280;48769;51.624;5.886;2023-03-21T14:09:31;100936.75;;;17.03;100.00
62708;BME280;48769;51.624;5.886;2023-03-21T14:11:59;100943.66;;;16.71;100.00
62708;BME280;48769;51.624;5.886;2023-03-21T14:14:32;100932.97;;;16.35;100.00
62708;BME280;48769;51.624;5.886;2023-03-21T14:17:00;100927.13;;;16.54;100.00
62708;BME280;48769;51.624;5.886;2023-03-21T14:19:30;100932.84;;;16.72;100.00
62708;BME280;48769;51.624;5.886;2023-03-21T14:21:57;100931.25;;;16.58;100.00
62708;BME280;48769;51.624;5.886;2023-03-21T14:24:22;100918.63;;;16.60;100.00
62708;BME280;48769;51.624;5.886;2023-03-21T14:26:52;100911.59;;;16.59;100.00